Terminal Aerodrome Forecast
Issued by NWS

Home | Current Version | Previous Version | Text Only | Print | Product List | Glossary On
Versions: 1 2 3 4 5 6 7 8 9 10 11 12 13 14
277
FTUS42 KFFC 251130
TAFRYY
TAF
KRYY 251130Z 2512/2612 29005KT P6SM SCT007 BKN025
      TEMPO 2512/2515 BKN005
     FM251500 31009KT P6SM BKN025
     FM251800 31012G18KT P6SM BKN035
     FM252300 31010KT P6SM SCT090
     FM260200 31005KT P6SM SCT250=

USA.gov is the U.S. government's official web portal to all federal, state and local government web resources and services.